Time,TemperatureF,DewpointF,PressureIn,WindDirection,WindDirectionDegrees,WindSpeedMPH,WindSpeedGustMPH,Humidity,HourlyPrecipIn,Conditions,Clouds,dailyrainin,SolarRadiationWatts/m^2,SoftwareType,DateUTC
2013-11-20 00:02:00,42.0,30.0,30.23,SE,138,4.0,-999.0,62,-99.99,,,0.00,0,weatherlink.com 1.10,2013-11-20 06:02:00,
2013-11-20 00:17:00,41.7,30.0,30.24,SE,139,6.0,-999.0,63,-99.99,,,0.00,0,weatherlink.com 1.10,2013-11-20 06:17:00,
2013-11-20 00:32:00,41.7,30.0,30.24,SE,139,2.0,-999.0,64,-99.99,,,0.00,0,weatherlink.com 1.10,2013-11-20 06:32:00,
2013-11-20 00:47:00,41.5,30.0,30.22,SE,139,6.0,-999.0,64,-99.99,,,0.00,0,weatherlink.com 1.10,2013-11-20 06:47:00,
2013-11-20 01:02:00,40.9,30.0,30.23,SE,140,2.0,-999.0,65,-99.99,,,0.00,0,weatherlink.com 1.10,2013-11-20 07:02:00,
2013-11-20 01:17:00,40.6,30.0,30.23,SE,138,6.0,-999.0,65,-99.99,,,0.00,0,weatherlink.com 1.10,2013-11-20 07:17:00,
2013-11-20 01:32:00,40.3,30.0,30.23,SE,138,5.0,-999.0,66,-99.99,,,0.00,0,weatherlink.com 1.10,2013-11-20 07:32:00,
2013-11-20 01:47:00,40.0,30.0,30.23,SE,138,1.0,-999.0,67,-99.99,,,0.00,0,weatherlink.com 1.10,2013-11-20 07:47:00,
2013-11-20 02:02:00,39.7,30.0,30.23,SE,137,4.0,-999.0,68,-99.99,,,0.00,0,weatherlink.com 1.10,2013-11-20 08:02:00,
2013-11-20 02:17:00,39.5,30.0,30.23,SE,137,2.0,-999.0,68,-99.99,,,0.00,0,weatherlink.com 1.10,2013-11-20 08:17:00,
2013-11-20 02:32:00,39.4,30.0,30.24,SE,137,4.0,-999.0,69,-99.99,,,0.00,0,weatherlink.com 1.10,2013-11-20 08:32:00,
2013-11-20 02:47:00,39.5,30.0,30.24,SE,137,2.0,-999.0,69,-99.99,,,0.00,0,weatherlink.com 1.10,2013-11-20 08:47:00,
2013-11-20 03:02:00,39.7,30.0,30.23,SE,137,4.0,-999.0,69,-99.99,,,0.00,0,weatherlink.com 1.10,2013-11-20 09:02:00,
2013-11-20 03:17:00,39.7,30.0,30.23,SE,137,4.0,-999.0,69,-99.99,,,0.00,0,weatherlink.com 1.10,2013-11-20 09:17:00,
2013-11-20 03:32:00,39.7,30.0,30.22,SE,137,2.0,-999.0,69,-99.99,,,0.00,0,weatherlink.com 1.10,2013-11-20 09:32:00,
2013-11-20 03:47:00,39.5,30.0,30.22,SE,137,4.0,-999.0,69,-99.99,,,0.00,0,weatherlink.com 1.10,2013-11-20 09:47:00,
2013-11-20 04:03:00,39.4,30.0,30.21,SE,136,4.0,-999.0,70,-99.99,,,0.00,0,weatherlink.com 1.10,2013-11-20 10:03:00,
2013-11-20 04:18:00,39.1,30.0,30.21,SE,136,4.0,-999.0,70,-99.99,,,0.00,0,weatherlink.com 1.10,2013-11-20 10:18:00,
2013-11-20 04:33:00,38.9,31.0,30.21,SE,137,6.0,-999.0,72,-99.99,,,0.00,0,weatherlink.com 1.10,2013-11-20 10:33:00,
2013-11-20 04:48:00,38.7,30.0,30.22,SE,137,4.0,-999.0,72,-99.99,,,0.00,0,weatherlink.com 1.10,2013-11-20 10:48:00,
2013-11-20 05:03:00,38.6,30.0,30.21,SE,137,4.0,-999.0,72,-99.99,,,0.00,0,weatherlink.com 1.10,2013-11-20 11:03:00,
2013-11-20 05:18:00,38.6,30.0,30.21,SE,137,0.0,-999.0,72,-99.99,,,0.00,0,weatherlink.com 1.10,2013-11-20 11:18:00,
2013-11-20 05:33:00,38.4,30.0,30.20,SE,137,4.0,-999.0,72,-99.99,,,0.00,0,weatherlink.com 1.10,2013-11-20 11:33:00,
2013-11-20 05:48:00,38.1,31.0,30.21,SE,137,6.0,-999.0,74,-99.99,,,0.00,0,weatherlink.com 1.10,2013-11-20 11:48:00,
2013-11-20 06:03:00,38.1,30.0,30.20,SE,138,2.0,-999.0,73,-99.99,,,0.00,0,weatherlink.com 1.10,2013-11-20 12:03:00,
2013-11-20 06:18:00,38.5,30.0,30.19,SE,140,5.0,-999.0,72,-99.99,,,0.00,0,weatherlink.com 1.10,2013-11-20 12:18:00,
2013-11-20 06:33:00,38.7,31.0,30.19,SE,138,7.0,-999.0,73,-99.99,,,0.00,0,weatherlink.com 1.10,2013-11-20 12:33:00,
2013-11-20 06:48:00,38.6,31.0,30.19,SE,138,5.0,-999.0,73,-99.99,,,0.00,0,weatherlink.com 1.10,2013-11-20 12:48:00,
2013-11-20 07:03:00,38.6,31.0,30.19,SE,137,6.0,-999.0,73,-99.99,,,0.00,9,weatherlink.com 1.10,2013-11-20 13:03:00,
2013-11-20 07:18:00,38.9,31.0,30.20,SE,138,2.0,-999.0,72,-99.99,,,0.00,19,weatherlink.com 1.10,2013-11-20 13:18:00,
2013-11-20 07:33:00,39.1,31.0,30.20,SE,139,5.0,-999.0,72,-99.99,,,0.00,33,weatherlink.com 1.10,2013-11-20 13:33:00,
2013-11-20 07:48:00,39.5,31.0,30.20,SE,142,8.0,-999.0,72,-99.99,,,0.00,65,weatherlink.com 1.10,2013-11-20 13:48:00,
2013-11-20 08:03:00,39.8,31.0,30.20,SE,140,6.0,-999.0,70,-99.99,,,0.00,84,weatherlink.com 1.10,2013-11-20 14:03:00,
2013-11-20 08:18:00,40.8,31.0,30.21,SE,142,0.0,-999.0,69,-99.99,,,0.00,98,weatherlink.com 1.10,2013-11-20 14:18:00,
2013-11-20 08:33:00,41.0,31.0,30.20,SE,140,5.0,-999.0,68,-99.99,,,0.00,111,weatherlink.com 1.10,2013-11-20 14:33:00,
2013-11-20 08:48:00,41.9,32.0,30.19,SE,140,0.0,-999.0,68,-99.99,,,0.00,181,weatherlink.com 1.10,2013-11-20 14:48:00,
2013-11-20 09:03:00,43.0,32.0,30.20,SE,141,0.0,-999.0,65,-99.99,,,0.00,162,weatherlink.com 1.10,2013-11-20 15:03:00,
2013-11-20 09:18:00,43.6,32.0,30.18,SE,142,14.0,-999.0,64,-99.99,,,0.00,148,weatherlink.com 1.10,2013-11-20 15:18:00,
2013-11-20 09:33:00,43.9,31.0,30.19,SE,140,5.0,-999.0,62,-99.99,,,0.00,193,weatherlink.com 1.10,2013-11-20 15:33:00,
2013-11-20 09:48:00,45.9,33.0,30.19,SE,138,0.0,-999.0,60,-99.99,,,0.00,417,weatherlink.com 1.10,2013-11-20 15:48:00,
2013-11-20 10:03:00,46.8,32.0,30.19,SE,141,2.0,-999.0,57,-99.99,,,0.00,508,weatherlink.com 1.10,2013-11-20 16:03:00,
2013-11-20 10:18:00,46.7,32.0,30.18,SE,140,0.0,-999.0,57,-99.99,,,0.00,179,weatherlink.com 1.10,2013-11-20 16:18:00,
2013-11-20 10:33:00,46.8,33.0,30.18,SE,140,0.0,-999.0,58,-99.99,,,0.00,204,weatherlink.com 1.10,2013-11-20 16:33:00,
2013-11-20 10:48:00,47.4,32.0,30.18,SE,142,8.0,-999.0,56,-99.99,,,0.00,260,weatherlink.com 1.10,2013-11-20 16:48:00,
2013-11-20 11:04:00,47.9,32.0,30.18,SE,142,0.0,-999.0,54,-99.99,,,0.00,206,weatherlink.com 1.10,2013-11-20 17:04:00,
2013-11-20 11:18:00,48.2,32.0,30.17,SE,141,4.0,-999.0,54,-99.99,,,0.00,251,weatherlink.com 1.10,2013-11-20 17:18:00,
2013-11-20 11:33:00,49.9,33.0,30.15,SE,141,4.0,-999.0,52,-99.99,,,0.00,649,weatherlink.com 1.10,2013-11-20 17:33:00,
2013-11-20 11:49:00,52.4,32.0,30.14,SE,146,0.0,-999.0,47,-99.99,,,0.00,513,weatherlink.com 1.10,2013-11-20 17:49:00,
2013-11-20 12:04:00,54.6,33.0,30.13,SE,140,5.0,-999.0,44,-99.99,,,0.00,679,weatherlink.com 1.10,2013-11-20 18:04:00,
2013-11-20 12:19:00,54.8,32.0,30.12,SSE,154,4.0,-999.0,43,-99.99,,,0.00,578,weatherlink.com 1.10,2013-11-20 18:19:00,
2013-11-20 12:34:00,54.3,33.0,30.11,SSE,148,5.0,-999.0,44,-99.99,,,0.00,592,weatherlink.com 1.10,2013-11-20 18:34:00,
2013-11-20 12:49:00,54.5,33.0,30.10,SE,145,4.0,-999.0,44,-99.99,,,0.00,285,weatherlink.com 1.10,2013-11-20 18:49:00,
2013-11-20 13:04:00,55.4,33.0,30.10,SE,144,0.0,-999.0,43,-99.99,,,0.00,403,weatherlink.com 1.10,2013-11-20 19:04:00,
2013-11-20 13:19:00,56.9,33.0,30.09,SE,143,1.0,-999.0,40,-99.99,,,0.00,352,weatherlink.com 1.10,2013-11-20 19:19:00,
2013-11-20 13:34:00,58.1,33.0,30.08,SE,141,6.0,-999.0,39,-99.99,,,0.00,371,weatherlink.com 1.10,2013-11-20 19:34:00,
2013-11-20 13:49:00,58.6,33.0,30.07,SSE,152,0.0,-999.0,38,-99.99,,,0.00,355,weatherlink.com 1.10,2013-11-20 19:49:00,
2013-11-20 14:04:00,59.0,32.0,30.06,SE,136,7.0,-999.0,36,-99.99,,,0.00,327,weatherlink.com 1.10,2013-11-20 20:04:00,
2013-11-20 14:19:00,59.5,32.0,30.05,SE,140,2.0,-999.0,36,-99.99,,,0.00,313,weatherlink.com 1.10,2013-11-20 20:19:00,
2013-11-20 14:34:00,59.5,32.0,30.05,SE,141,6.0,-999.0,35,-99.99,,,0.00,272,weatherlink.com 1.10,2013-11-20 20:34:00,
2013-11-20 14:49:00,59.6,31.0,30.04,SE,137,5.0,-999.0,34,-99.99,,,0.00,102,weatherlink.com 1.10,2013-11-20 20:49:00,
2013-11-20 15:19:00,60.6,27.0,30.04,SE,136,4.0,-999.0,28,-99.99,,,0.00,251,weatherlink.com 1.10,2013-11-20 21:19:00,
2013-11-20 15:34:00,60.9,29.0,30.04,SSE,154,1.0,-999.0,30,-99.99,,,0.00,178,weatherlink.com 1.10,2013-11-20 21:34:00,
2013-11-20 15:49:00,60.1,28.0,30.05,SE,143,6.0,-999.0,30,-99.99,,,0.00,67,weatherlink.com 1.10,2013-11-20 21:49:00,
2013-11-20 16:04:00,59.5,28.0,30.05,SE,138,7.0,-999.0,30,-99.99,,,0.00,37,weatherlink.com 1.10,2013-11-20 22:04:00,
2013-11-20 16:19:00,58.7,28.0,30.05,SE,142,0.0,-999.0,31,-99.99,,,0.00,25,weatherlink.com 1.10,2013-11-20 22:19:00,
2013-11-20 16:34:00,58.2,28.0,30.06,SE,139,0.0,-999.0,32,-99.99,,,0.00,18,weatherlink.com 1.10,2013-11-20 22:34:00,
2013-11-20 16:49:00,57.7,29.0,30.06,SE,142,2.0,-999.0,34,-99.99,,,0.00,9,weatherlink.com 1.10,2013-11-20 22:49:00,
2013-11-20 17:04:00,57.2,30.0,30.07,SSE,153,0.0,-999.0,36,-99.99,,,0.00,0,weatherlink.com 1.10,2013-11-20 23:04:00,
2013-11-20 17:19:00,56.3,31.0,30.08,SSE,150,4.0,-999.0,38,-99.99,,,0.00,0,weatherlink.com 1.10,2013-11-20 23:19:00,
2013-11-20 17:34:00,55.7,31.0,30.08,SSE,150,7.0,-999.0,39,-99.99,,,0.00,0,weatherlink.com 1.10,2013-11-20 23:34:00,
2013-11-20 17:49:00,55.1,30.0,30.09,SE,139,2.0,-999.0,39,-99.99,,,0.00,0,weatherlink.com 1.10,2013-11-20 23:49:00,
2013-11-20 18:04:00,54.6,31.0,30.09,SE,139,0.0,-999.0,41,-99.99,,,0.00,0,weatherlink.com 1.10,2013-11-21 00:04:00,
2013-11-20 18:19:00,53.8,32.0,30.10,SE,139,0.0,-999.0,44,-99.99,,,0.00,0,weatherlink.com 1.10,2013-11-21 00:19:00,
2013-11-20 18:34:00,53.1,33.0,30.10,SE,139,2.0,-999.0,47,-99.99,,,0.00,0,weatherlink.com 1.10,2013-11-21 00:34:00,
2013-11-20 18:49:00,52.8,34.0,30.11,SE,139,0.0,-999.0,49,-99.99,,,0.00,0,weatherlink.com 1.10,2013-11-21 00:49:00,
2013-11-20 19:04:00,52.6,34.0,30.11,SE,139,4.0,-999.0,50,-99.99,,,0.00,0,weatherlink.com 1.10,2013-11-21 01:04:00,
2013-11-20 19:19:00,52.3,35.0,30.11,SE,139,0.0,-999.0,52,-99.99,,,0.00,0,weatherlink.com 1.10,2013-11-21 01:19:00,
2013-11-20 19:35:00,52.3,35.0,30.11,SE,139,0.0,-999.0,52,-99.99,,,0.00,0,weatherlink.com 1.10,2013-11-21 01:35:00,
2013-11-20 19:50:00,52.3,35.0,30.13,SE,139,0.0,-999.0,52,-99.99,,,0.00,0,weatherlink.com 1.10,2013-11-21 01:50:00,
2013-11-20 20:05:00,52.2,35.0,30.13,SE,139,0.0,-999.0,53,-99.99,,,0.00,0,weatherlink.com 1.10,2013-11-21 02:05:00,
2013-11-20 20:20:00,51.9,35.0,30.12,SE,139,2.0,-999.0,53,-99.99,,,0.00,0,weatherlink.com 1.10,2013-11-21 02:20:00,
2013-11-20 20:35:00,51.7,35.0,30.13,SE,139,5.0,-999.0,54,-99.99,,,0.00,0,weatherlink.com 1.10,2013-11-21 02:35:00,
2013-11-20 20:50:00,51.5,35.0,30.13,SE,139,1.0,-999.0,54,-99.99,,,0.00,0,weatherlink.com 1.10,2013-11-21 02:50:00,
2013-11-20 21:05:00,51.3,35.0,30.13,SE,139,2.0,-999.0,55,-99.99,,,0.00,0,weatherlink.com 1.10,2013-11-21 03:05:00,
2013-11-20 21:20:00,51.3,35.0,30.13,SE,139,0.0,-999.0,55,-99.99,,,0.00,0,weatherlink.com 1.10,2013-11-21 03:20:00,
2013-11-20 21:35:00,51.2,36.0,30.14,SE,139,0.0,-999.0,56,-99.99,,,0.00,0,weatherlink.com 1.10,2013-11-21 03:35:00,
2013-11-20 21:50:00,51.1,36.0,30.14,SE,139,0.0,-999.0,57,-99.99,,,0.00,0,weatherlink.com 1.10,2013-11-21 03:50:00,
2013-11-20 22:05:00,50.9,36.0,30.13,SE,139,0.0,-999.0,58,-99.99,,,0.00,0,weatherlink.com 1.10,2013-11-21 04:05:00,
2013-11-20 22:20:00,51.0,36.0,30.13,SE,139,0.0,-999.0,58,-99.99,,,0.00,0,weatherlink.com 1.10,2013-11-21 04:20:00,
2013-11-20 22:35:00,51.0,36.0,30.13,SE,139,0.0,-999.0,57,-99.99,,,0.00,0,weatherlink.com 1.10,2013-11-21 04:35:00,
2013-11-20 22:50:00,51.2,36.0,30.13,SE,139,0.0,-999.0,57,-99.99,,,0.00,0,weatherlink.com 1.10,2013-11-21 04:50:00,
2013-11-20 23:05:00,51.5,37.0,30.12,SE,139,5.0,-999.0,58,-99.99,,,0.00,0,weatherlink.com 1.10,2013-11-21 05:05:00,
2013-11-20 23:20:00,51.7,37.0,30.12,SE,136,6.0,-999.0,57,-99.99,,,0.00,0,weatherlink.com 1.10,2013-11-21 05:20:00,
2013-11-20 23:35:00,52.1,37.0,30.12,SE,142,5.0,-999.0,56,-99.99,,,0.00,0,weatherlink.com 1.10,2013-11-21 05:35:00,
2013-11-20 23:50:00,52.3,37.0,30.10,SE,139,10.0,-999.0,57,-99.99,,,0.00,0,weatherlink.com 1.10,2013-11-21 05:50:00,